Terminal Aerodrome Forecast
Issued by NWS

Home | Current Version | Previous Version | Text Only | Print | Product List | Glossary On
Versions: 1 2 3 4 5 6 7 8 9 10 11 12 13 14 15 16 17 18 19 20 21 22
000
FTUS43 KICT 251347 AAB
TAFRSL
TAF AMD
KRSL 251347Z 2514/2612 07011KT P6SM VCSH SCT007 OVC100
      TEMPO 2514/2516 BKN007 OVC015
     FM251600 07010KT P6SM SCT025 BKN100=

USA.gov is the U.S. government's official web portal to all federal, state and local government web resources and services.